Time;durP1;ratioP1;P1;durP2;ratioP2;P2;SDS_P1;SDS_P2;PMS_P1;PMS_P2;Temp;Humidity;BMP_temperature;BMP_pressure;BME280_temperature;BME280_humidity;BME280_pressure;Samples;Min_cycle;Max_cycle;Signal;HPM_P1;HPM_P2
2023/08/08 00:01:30;;;;;;;2.00;1.00;;;13.70;99.90;;;;;;5041114;28;20494;-71
2023/08/08 00:03:56;;;;;;;2.60;1.20;;;13.80;99.90;;;;;;5041106;28;20470;-71
2023/08/08 00:06:22;;;;;;;2.40;1.08;;;13.70;99.90;;;;;;5041026;28;20570;-71
2023/08/08 00:08:47;;;;;;;3.53;0.95;;;13.70;99.90;;;;;;5073601;28;20060;-71
2023/08/08 00:11:13;;;;;;;2.40;1.13;;;13.70;99.90;;;;;;5071717;28;20094;-71
2023/08/08 00:13:38;;;;;;;2.40;1.40;;;13.80;99.90;;;;;;5035261;28;20048;-71
2023/08/08 00:16:04;;;;;;;5.85;1.48;;;13.80;99.90;;;;;;5034433;28;20056;-72
2023/08/08 00:18:30;;;;;;;3.03;1.20;;;13.70;99.90;;;;;;5036846;28;20048;-71
2023/08/08 00:20:56;;;;;;;3.30;1.40;;;13.80;99.90;;;;;;5069033;28;20033;-71
2023/08/08 00:23:21;;;;;;;4.72;1.42;;;13.80;99.90;;;;;;5038142;28;20044;-71
2023/08/08 00:25:49;;;;;;;3.90;1.50;;;13.80;99.90;;;;;;5039116;28;20043;-71
2023/08/08 00:28:16;;;;;;;3.70;1.35;;;13.80;99.90;;;;;;5037944;28;20053;-71
2023/08/08 00:30:41;;;;;;;3.33;1.23;;;13.80;99.90;;;;;;5069251;28;20450;-72
2023/08/08 00:33:07;;;;;;;3.72;1.63;;;13.80;99.90;;;;;;5040346;28;20029;-72
2023/08/08 00:35:33;;;;;;;2.45;1.38;;;13.70;99.90;;;;;;5019972;28;20045;-72
2023/08/08 00:37:58;;;;;;;5.82;1.60;;;13.80;99.90;;;;;;5035498;28;20049;-72
2023/08/08 00:40:24;;;;;;;6.32;1.38;;;13.80;99.90;;;;;;5073362;28;20032;-72
2023/08/08 00:42:50;;;;;;;2.30;1.30;;;13.70;99.90;;;;;;5015969;28;20487;-71
2023/08/08 00:45:15;;;;;;;3.35;1.52;;;13.70;99.90;;;;;;5034937;28;20040;-71
2023/08/08 00:47:41;;;;;;;4.15;1.70;;;13.70;99.90;;;;;;5039816;28;20049;-71
2023/08/08 00:50:09;;;;;;;3.05;1.40;;;13.80;99.90;;;;;;5072533;28;20041;-71
2023/08/08 00:52:36;;;;;;;2.22;1.30;;;13.80;99.90;;;;;;5035916;28;20051;-71
2023/08/08 00:55:02;;;;;;;3.55;1.33;;;13.80;99.90;;;;;;5038576;28;20091;-72
2023/08/08 00:57:27;;;;;;;6.22;1.30;;;13.80;99.90;;;;;;5036081;28;20041;-72
2023/08/08 00:59:53;;;;;;;4.18;1.40;;;13.80;99.90;;;;;;5068628;28;20459;-71
2023/08/08 01:02:19;;;;;;;2.47;1.20;;;13.80;99.90;;;;;;5035759;28;20106;-71
2023/08/08 01:04:45;;;;;;;3.10;1.02;;;13.80;99.90;;;;;;5070822;28;20036;-71
2023/08/08 01:07:48;;;;;;;2.50;1.13;;;13.90;99.90;;;;;;5039848;28;20400;-71
2023/08/08 01:10:41;;;;;;;3.15;1.30;;;13.90;99.90;;;;;;5041060;28;20048;-71
2023/08/08 01:13:33;;;;;;;3.53;1.52;;;13.90;99.90;;;;;;5029536;28;20052;-72
2023/08/08 01:15:59;;;;;;;3.38;1.40;;;13.90;99.90;;;;;;5042035;28;20072;-72
2023/08/08 01:18:26;;;;;;;3.67;1.52;;;13.90;99.90;;;;;;5042756;28;20144;-71
2023/08/08 01:20:52;;;;;;;2.40;1.17;;;13.90;99.90;;;;;;5043271;28;20033;-72
2023/08/08 01:23:30;;;;;;;5.20;1.48;;;13.90;99.90;;;;;;5058585;28;20338;-71
2023/08/08 01:25:57;;;;;;;4.88;1.30;;;13.90;99.90;;;;;;5036129;28;20211;-72
2023/08/08 01:28:23;;;;;;;3.55;1.52;;;13.90;99.90;;;;;;5076861;28;20048;-72
2023/08/08 01:30:50;;;;;;;3.05;1.40;;;13.90;99.90;;;;;;5041537;28;20554;-71
2023/08/08 01:33:16;;;;;;;6.05;1.40;;;13.90;99.90;;;;;;5023839;28;20037;-72
2023/08/08 01:35:45;;;;;;;3.75;1.70;;;13.90;99.90;;;;;;5038369;28;20483;-72
2023/08/08 01:38:23;;;;;;;3.70;1.35;;;13.90;99.90;;;;;;5042594;28;20336;-72
2023/08/08 01:40:49;;;;;;;2.67;1.48;;;13.90;99.90;;;;;;5045675;28;20084;-72
2023/08/08 01:43:16;;;;;;;3.03;1.33;;;13.90;99.90;;;;;;5045830;28;20399;-72
2023/08/08 01:45:43;;;;;;;2.13;1.10;;;13.90;99.90;;;;;;5045176;28;20356;-72
2023/08/08 01:48:10;;;;;;;3.63;1.63;;;13.90;99.90;;;;;;5046084;28;20522;-71
2023/08/08 01:50:36;;;;;;;2.85;1.25;;;13.80;99.90;;;;;;5045125;28;20394;-71
2023/08/08 01:53:02;;;;;;;3.80;1.60;;;13.80;99.90;;;;;;5040997;28;20041;-72
2023/08/08 01:55:28;;;;;;;3.15;1.50;;;13.80;99.90;;;;;;5039592;28;20394;-72
2023/08/08 01:57:53;;;;;;;2.78;1.35;;;13.80;99.90;;;;;;5053182;28;20041;-72
2023/08/08 02:00:19;;;;;;;3.00;1.30;;;13.80;99.90;;;;;;5020541;28;20060;-72
2023/08/08 02:02:45;;;;;;;4.13;1.60;;;13.80;99.90;;;;;;5036437;28;20079;-71
2023/08/08 02:05:11;;;;;;;3.83;1.08;;;13.80;99.90;;;;;;5041574;28;20041;-71
2023/08/08 02:07:36;;;;;;;3.35;1.02;;;13.80;99.90;;;;;;5040569;28;20883;-72
2023/08/08 02:10:02;;;;;;;5.07;1.50;;;13.80;99.90;;;;;;5039377;28;20059;-72
2023/08/08 02:12:29;;;;;;;4.80;1.30;;;13.80;99.90;;;;;;5074531;28;20506;-71
2023/08/08 02:14:58;;;;;;;3.95;1.77;;;13.80;99.90;;;;;;5042659;28;20033;-72
2023/08/08 02:17:25;;;;;;;3.10;1.60;;;13.80;99.90;;;;;;5020461;28;20141;-72
2023/08/08 02:19:51;;;;;;;4.05;1.80;;;13.80;99.90;;;;;;5039490;28;20079;-72
2023/08/08 02:22:17;;;;;;;3.78;1.70;;;13.80;99.90;;;;;;5038904;28;20072;-72
2023/08/08 02:24:43;;;;;;;4.80;1.50;;;13.80;99.90;;;;;;5039840;28;20052;-72
2023/08/08 02:27:09;;;;;;;3.85;1.70;;;13.80;99.90;;;;;;5037123;28;20062;-72
2023/08/08 02:29:34;;;;;;;3.20;1.23;;;13.80;99.90;;;;;;5040362;28;20131;-72
2023/08/08 02:32:00;;;;;;;4.03;1.50;;;13.70;99.90;;;;;;5074743;28;20446;-72
2023/08/08 02:34:26;;;;;;;3.80;1.92;;;13.70;99.90;;;;;;5042169;28;20041;-72
2023/08/08 02:36:51;;;;;;;5.35;1.40;;;13.70;99.90;;;;;;5041972;28;20041;-72
2023/08/08 02:39:17;;;;;;;5.25;1.40;;;13.70;99.90;;;;;;5071333;28;20683;-72
2023/08/08 02:41:43;;;;;;;2.92;1.52;;;13.70;99.90;;;;;;5072270;28;20045;-72
2023/08/08 02:44:09;;;;;;;3.40;1.40;;;13.70;99.90;;;;;;5040908;28;20040;-72
2023/08/08 02:46:34;;;;;;;3.10;1.75;;;13.70;99.90;;;;;;5042109;28;20513;-72
2023/08/08 02:49:00;;;;;;;3.33;1.70;;;13.70;99.90;;;;;;5041691;28;20513;-72
2023/08/08 02:51:25;;;;;;;3.47;1.50;;;13.70;99.90;;;;;;5041449;28;20041;-72
2023/08/08 02:53:51;;;;;;;7.45;1.92;;;13.70;99.90;;;;;;5041806;28;20033;-72
2023/08/08 02:56:16;;;;;;;5.90;1.95;;;13.70;99.90;;;;;;5038012;28;20033;-72
2023/08/08 02:58:42;;;;;;;2.75;1.40;;;13.70;99.90;;;;;;5040438;28;20170;-72
2023/08/08 03:01:08;;;;;;;5.22;1.83;;;13.70;99.90;;;;;;5073980;28;20105;-72
2023/08/08 03:03:33;;;;;;;3.17;1.42;;;13.80;99.90;;;;;;5040750;28;20072;-72
2023/08/08 03:06:00;;;;;;;3.35;1.52;;;13.70;99.90;;;;;;5035138;28;20098;-72
2023/08/08 03:08:27;;;;;;;3.97;1.30;;;13.70;99.90;;;;;;5039947;28;20502;-72
2023/08/08 03:10:53;;;;;;;4.88;1.60;;;13.70;99.90;;;;;;5073196;28;20525;-72
2023/08/08 03:13:19;;;;;;;3.03;1.10;;;13.70;99.90;;;;;;5037984;28;21299;-72
2023/08/08 03:15:45;;;;;;;3.55;1.55;;;13.70;99.90;;;;;;5041122;28;20432;-72
2023/08/08 03:18:11;;;;;;;4.28;1.20;;;13.70;99.90;;;;;;5040388;28;20040;-72
2023/08/08 03:20:36;;;;;;;6.75;1.50;;;13.70;99.90;;;;;;5042471;28;20029;-72
2023/08/08 03:23:02;;;;;;;2.70;1.30;;;13.70;99.90;;;;;;5037033;28;20048;-72
2023/08/08 03:25:27;;;;;;;2.40;1.20;;;13.70;99.90;;;;;;5014755;28;20502;-71
2023/08/08 03:27:53;;;;;;;2.95;1.33;;;13.70;99.90;;;;;;5038017;28;20057;-72
2023/08/08 03:30:19;;;;;;;6.05;1.42;;;13.70;99.90;;;;;;5040572;28;20029;-72
2023/08/08 03:32:44;;;;;;;3.28;1.10;;;13.70;99.90;;;;;;5036749;28;20407;-72
2023/08/08 03:35:10;;;;;;;2.90;1.23;;;13.60;99.90;;;;;;5037804;28;20060;-72
2023/08/08 03:37:35;;;;;;;6.70;1.60;;;13.60;99.90;;;;;;5038460;28;20060;-72
2023/08/08 03:40:01;;;;;;;3.40;1.55;;;13.60;99.90;;;;;;5022190;28;20036;-72
2023/08/08 03:42:27;;;;;;;7.75;1.20;;;13.70;99.90;;;;;;5038559;28;20041;-72
2023/08/08 03:44:52;;;;;;;3.35;1.27;;;13.70;99.90;;;;;;5073561;28;20067;-72
2023/08/08 03:47:18;;;;;;;7.60;1.58;;;13.70;99.90;;;;;;5039743;28;20131;-72
2023/08/08 03:49:43;;;;;;;2.95;1.20;;;13.70;99.90;;;;;;5071758;28;20502;-72
2023/08/08 03:52:09;;;;;;;4.60;1.42;;;13.70;99.90;;;;;;5037610;28;20455;-72
2023/08/08 03:54:34;;;;;;;2.67;1.30;;;13.70;99.90;;;;;;5067592;28;20040;-72
2023/08/08 03:57:01;;;;;;;4.72;1.42;;;13.70;99.90;;;;;;5069517;28;20596;-72
2023/08/08 03:59:26;;;;;;;4.30;1.52;;;13.70;99.90;;;;;;5038700;28;20040;-72
2023/08/08 04:01:52;;;;;;;2.80;1.20;;;13.70;99.90;;;;;;5039840;28;20041;-72
2023/08/08 04:04:17;;;;;;;3.15;1.65;;;13.70;99.90;;;;;;5034971;28;20115;-72
2023/08/08 04:06:43;;;;;;;3.67;1.27;;;13.70;99.90;;;;;;5038602;28;20439;-72
2023/08/08 04:09:09;;;;;;;6.30;1.20;;;13.70;99.90;;;;;;5037627;28;20037;-72
2023/08/08 04:11:35;;;;;;;2.38;1.20;;;13.60;99.90;;;;;;5039212;28;20242;-72
2023/08/08 04:14:01;;;;;;;2.83;1.40;;;13.60;99.90;;;;;;5039893;28;20079;-72
2023/08/08 04:16:27;;;;;;;2.35;1.10;;;13.60;99.90;;;;;;5071068;28;20044;-72
2023/08/08 04:18:53;;;;;;;3.70;1.30;;;13.60;99.90;;;;;;5024031;28;20407;-72
2023/08/08 04:21:19;;;;;;;2.33;1.33;;;13.60;99.90;;;;;;5071177;28;20111;-72
2023/08/08 04:23:44;;;;;;;4.88;1.30;;;13.60;99.90;;;;;;5036966;28;20083;-72
2023/08/08 04:26:10;;;;;;;3.50;1.27;;;13.70;99.90;;;;;;5036295;28;20449;-72
2023/08/08 04:28:36;;;;;;;3.40;1.20;;;13.60;99.90;;;;;;5038428;28;20075;-72
2023/08/08 04:31:01;;;;;;;2.72;1.10;;;13.60;99.90;;;;;;5038964;28;20033;-72
2023/08/08 04:33:27;;;;;;;2.67;0.70;;;13.60;99.90;;;;;;5053979;28;20039;-72
2023/08/08 04:35:52;;;;;;;2.08;1.00;;;13.60;99.90;;;;;;5035509;28;20045;-72
2023/08/08 04:38:18;;;;;;;2.42;1.02;;;13.60;99.90;;;;;;5038986;28;20044;-72
2023/08/08 04:40:44;;;;;;;3.70;0.93;;;13.60;99.90;;;;;;5039448;28;20122;-72
2023/08/08 04:43:10;;;;;;;1.65;0.77;;;13.70;99.90;;;;;;5070934;28;20135;-72
2023/08/08 04:45:36;;;;;;;3.95;0.90;;;13.70;99.90;;;;;;5023004;28;20494;-72
2023/08/08 04:48:01;;;;;;;2.80;0.70;;;13.70;99.90;;;;;;5043614;28;20045;-72
2023/08/08 04:50:28;;;;;;;4.88;1.00;;;13.70;99.90;;;;;;5042214;28;20071;-72
2023/08/08 04:52:53;;;;;;;1.25;0.77;;;13.70;99.90;;;;;;5039695;28;20043;-72
2023/08/08 04:55:19;;;;;;;3.80;1.00;;;13.70;99.90;;;;;;5042027;28;20041;-72
2023/08/08 04:57:44;;;;;;;2.22;0.70;;;13.70;99.90;;;;;;5058115;28;20854;-72
2023/08/08 05:00:11;;;;;;;2.28;0.90;;;13.70;99.90;;;;;;5042110;28;20074;-72
2023/08/08 05:02:39;;;;;;;1.20;0.70;;;13.70;99.90;;;;;;5071822;28;20037;-72
2023/08/08 05:05:05;;;;;;;2.47;0.80;;;13.70;99.90;;;;;;5074226;28;20033;-72
2023/08/08 05:07:30;;;;;;;3.15;0.73;;;13.70;99.90;;;;;;5042669;28;20048;-72
2023/08/08 05:09:56;;;;;;;6.22;0.90;;;13.60;99.90;;;;;;5041995;28;20032;-72
2023/08/08 05:12:22;;;;;;;4.35;0.68;;;13.60;99.90;;;;;;5043965;28;20127;-72
2023/08/08 05:14:47;;;;;;;3.65;0.98;;;13.60;99.90;;;;;;5046196;28;20103;-72
2023/08/08 05:17:13;;;;;;;3.45;1.27;;;13.60;99.90;;;;;;5076718;28;20041;-72
2023/08/08 05:19:38;;;;;;;3.50;0.82;;;13.60;99.90;;;;;;5042876;28;21299;-72
2023/08/08 05:22:05;;;;;;;3.97;0.63;;;13.60;99.90;;;;;;5039862;28;20045;-72
2023/08/08 05:24:31;;;;;;;1.42;0.60;;;13.60;99.90;;;;;;5042791;28;20400;-72
2023/08/08 05:26:56;;;;;;;2.20;0.60;;;13.60;99.90;;;;;;5039750;28;20059;-72
2023/08/08 05:29:22;;;;;;;2.65;0.50;;;13.70;99.90;;;;;;5045688;28;20037;-72
2023/08/08 05:31:47;;;;;;;2.45;0.68;;;13.80;99.90;;;;;;5074196;28;20033;-72
2023/08/08 05:34:13;;;;;;;2.45;0.75;;;13.80;99.90;;;;;;5040280;28;20067;-72
2023/08/08 05:36:39;;;;;;;4.18;0.82;;;13.90;99.90;;;;;;5073955;28;20148;-72
2023/08/08 05:39:06;;;;;;;5.18;0.75;;;13.90;99.90;;;;;;5052184;28;20095;-72
2023/08/08 05:41:32;;;;;;;4.10;0.70;;;14.00;99.90;;;;;;5040682;28;20045;-72
2023/08/08 05:43:58;;;;;;;1.38;0.63;;;14.10;99.90;;;;;;5041002;28;20033;-72
2023/08/08 05:46:23;;;;;;;3.42;0.65;;;14.10;99.90;;;;;;5040925;28;20124;-72
2023/08/08 05:48:49;;;;;;;1.70;0.77;;;14.20;99.90;;;;;;5042452;28;20133;-72
2023/08/08 05:51:14;;;;;;;1.20;0.63;;;14.20;99.90;;;;;;5040896;28;20765;-72
2023/08/08 05:53:40;;;;;;;1.45;0.60;;;14.20;99.90;;;;;;5041493;28;20180;-72
2023/08/08 05:56:06;;;;;;;1.58;0.50;;;14.30;99.90;;;;;;5038835;28;20037;-72
2023/08/08 05:58:31;;;;;;;0.82;0.30;;;14.30;99.90;;;;;;5040595;28;20175;-72
2023/08/08 06:00:57;;;;;;;1.25;0.47;;;14.30;99.90;;;;;;5041714;28;20048;-72
2023/08/08 06:03:22;;;;;;;2.13;0.75;;;14.30;99.90;;;;;;5075016;28;20041;-72
2023/08/08 06:05:48;;;;;;;1.00;0.50;;;14.30;99.90;;;;;;5025841;28;20040;-72
2023/08/08 06:08:16;;;;;;;1.33;0.52;;;14.30;99.90;;;;;;5072031;28;20568;-72
2023/08/08 06:10:42;;;;;;;2.97;0.68;;;14.30;99.90;;;;;;5056203;28;20482;-72
2023/08/08 06:13:07;;;;;;;2.25;0.40;;;14.30;99.90;;;;;;5075125;28;20048;-72
2023/08/08 06:15:33;;;;;;;1.83;0.68;;;14.30;99.90;;;;;;5045301;28;20052;-72
2023/08/08 06:17:59;;;;;;;1.73;0.50;;;14.40;99.90;;;;;;5044370;28;20043;-72
2023/08/08 06:20:25;;;;;;;2.40;0.55;;;14.30;99.90;;;;;;5039592;28;20048;-72
2023/08/08 06:22:52;;;;;;;0.93;0.50;;;14.40;99.90;;;;;;5038773;28;20062;-72
2023/08/08 06:25:17;;;;;;;1.27;0.40;;;14.40;99.90;;;;;;5041892;28;20044;-72
2023/08/08 06:27:43;;;;;;;1.00;0.47;;;14.40;99.90;;;;;;5020102;28;20057;-72
2023/08/08 06:30:09;;;;;;;2.50;0.77;;;14.40;99.90;;;;;;5036519;28;20127;-72
2023/08/08 06:32:34;;;;;;;1.38;0.43;;;14.40;99.90;;;;;;5040442;28;20037;-72
2023/08/08 06:35:00;;;;;;;3.45;0.52;;;14.60;99.90;;;;;;5037360;28;20423;-76
2023/08/08 06:37:25;;;;;;;1.58;0.50;;;15.10;99.90;;;;;;5073089;28;20036;-72
2023/08/08 06:39:51;;;;;;;5.25;0.63;;;16.00;99.90;;;;;;5037088;28;20406;-72
2023/08/08 06:42:17;;;;;;;1.95;0.60;;;16.90;99.90;;;;;;5068418;28;20037;-72
2023/08/08 06:44:43;;;;;;;0.90;0.40;;;17.40;99.90;;;;;;5020466;28;20048;-72
2023/08/08 06:47:10;;;;;;;2.10;0.63;;;17.40;99.90;;;;;;5037900;28;20044;-73
2023/08/08 06:49:36;;;;;;;5.85;0.60;;;17.10;99.90;;;;;;5071633;28;20041;-73
2023/08/08 06:52:02;;;;;;;1.73;0.90;;;16.80;99.90;;;;;;5016935;28;20056;-73
2023/08/08 06:54:28;;;;;;;2.67;1.20;;;16.70;99.90;;;;;;5040794;28;20419;-73
2023/08/08 06:56:56;;;;;;;2.15;0.50;;;16.50;99.90;;;;;;5038385;28;20541;-73
2023/08/08 06:59:22;;;;;;;2.83;0.50;;;16.40;99.90;;;;;;5039496;28;20044;-73
2023/08/08 07:01:48;;;;;;;4.22;0.63;;;16.40;99.90;;;;;;5040169;28;20486;-73
2023/08/08 07:04:14;;;;;;;0.98;0.45;;;16.30;99.90;;;;;;5041315;28;20475;-73
2023/08/08 07:06:40;;;;;;;3.10;0.40;;;16.20;99.90;;;;;;5036355;28;20068;-73
2023/08/08 07:09:06;;;;;;;3.75;0.77;;;16.20;99.90;;;;;;5068937;28;20044;-73
2023/08/08 07:11:32;;;;;;;3.70;0.52;;;16.20;99.90;;;;;;5038646;28;20032;-72
2023/08/08 07:13:57;;;;;;;2.22;0.50;;;16.10;99.90;;;;;;5033178;28;20422;-72
2023/08/08 07:16:23;;;;;;;2.85;0.70;;;16.10;99.90;;;;;;5039726;28;20068;-72
2023/08/08 07:18:49;;;;;;;3.70;0.70;;;16.10;99.90;;;;;;5020460;28;20052;-72
2023/08/08 07:21:14;;;;;;;1.98;0.50;;;16.10;99.90;;;;;;5038778;28;20231;-72
2023/08/08 07:23:40;;;;;;;2.70;0.40;;;16.10;99.90;;;;;;5070348;28;20072;-72
2023/08/08 07:26:06;;;;;;;0.77;0.30;;;16.10;99.90;;;;;;5023029;28;20041;-72
2023/08/08 07:28:32;;;;;;;2.00;0.60;;;16.20;99.90;;;;;;5040636;28;20725;-73
2023/08/08 07:30:58;;;;;;;9.50;0.70;;;16.20;99.90;;;;;;5023762;28;20072;-72
2023/08/08 07:33:23;;;;;;;2.65;0.40;;;16.30;99.90;;;;;;5039187;28;20127;-73
2023/08/08 07:35:49;;;;;;;2.03;0.40;;;16.30;99.90;;;;;;5069821;28;20422;-72
2023/08/08 07:38:15;;;;;;;3.60;0.82;;;16.40;99.90;;;;;;5037671;28;20494;-72
2023/08/08 07:40:41;;;;;;;2.88;0.30;;;16.40;99.90;;;;;;5039892;28;20460;-72
2023/08/08 07:43:07;;;;;;;1.25;0.75;;;16.40;99.90;;;;;;5040709;28;20171;-72
2023/08/08 07:45:32;;;;;;;1.25;0.40;;;16.40;99.90;;;;;;5034512;28;20037;-73
2023/08/08 07:47:58;;;;;;;2.53;0.40;;;16.40;99.90;;;;;;5043579;28;20036;-72
2023/08/08 07:50:23;;;;;;;0.95;0.22;;;16.40;99.90;;;;;;5042559;28;20485;-73
2023/08/08 07:52:49;;;;;;;1.35;0.30;;;16.40;99.90;;;;;;5035803;28;20533;-73
2023/08/08 07:55:14;;;;;;;1.13;0.45;;;16.50;99.90;;;;;;5040466;28;20044;-73
2023/08/08 07:57:40;;;;;;;2.47;0.50;;;16.40;99.90;;;;;;5070779;28;20392;-73
2023/08/08 08:00:11;;;;;;;2.13;0.50;;;16.50;99.90;;;;;;5036246;28;20034;-73
2023/08/08 08:02:41;;;;;;;3.75;0.50;;;16.50;99.90;;;;;;5053062;28;20041;-73
2023/08/08 08:05:07;;;;;;;2.47;0.40;;;16.60;99.90;;;;;;5037824;28;20510;-73
2023/08/08 08:07:34;;;;;;;2.40;0.50;;;16.60;99.90;;;;;;5039680;28;20116;-73
2023/08/08 08:10:01;;;;;;;3.33;0.32;;;16.60;99.90;;;;;;5039243;28;20041;-72
2023/08/08 08:12:27;;;;;;;0.70;0.28;;;16.60;99.90;;;;;;5039431;28;20137;-72
2023/08/08 08:14:52;;;;;;;3.08;0.47;;;16.60;99.90;;;;;;5021062;28;20123;-72
2023/08/08 08:17:18;;;;;;;6.90;0.75;;;16.60;99.90;;;;;;5037251;28;20052;-71
2023/08/08 08:19:43;;;;;;;2.65;0.63;;;16.60;99.90;;;;;;5036984;28;20069;-72
2023/08/08 08:22:09;;;;;;;1.83;0.40;;;16.60;99.90;;;;;;5039205;28;20033;-72
2023/08/08 08:24:35;;;;;;;2.28;0.40;;;16.70;99.90;;;;;;5037644;28;20068;-72
2023/08/08 08:27:00;;;;;;;1.23;0.30;;;16.70;99.90;;;;;;5038850;28;20088;-72
2023/08/08 08:29:26;;;;;;;0.93;0.30;;;16.70;99.90;;;;;;5074604;28;20033;-72
2023/08/08 08:31:51;;;;;;;0.73;0.28;;;16.70;99.90;;;;;;5038993;28;20051;-74
2023/08/08 08:34:17;;;;;;;1.92;0.50;;;16.70;99.90;;;;;;5039895;28;20043;-73
2023/08/08 08:36:42;;;;;;;1.60;0.50;;;16.80;99.90;;;;;;5056318;28;20041;-73
2023/08/08 08:39:08;;;;;;;1.30;0.40;;;16.80;99.90;;;;;;5043824;28;20483;-74
2023/08/08 08:41:37;;;;;;;2.33;0.70;;;16.80;99.90;;;;;;5038382;28;20037;-73
2023/08/08 08:44:03;;;;;;;2.85;0.80;;;16.90;99.90;;;;;;5036602;28;20406;-73
2023/08/08 08:46:30;;;;;;;4.75;0.50;;;16.90;99.90;;;;;;5072681;28;20628;-73
2023/08/08 08:48:59;;;;;;;1.35;0.40;;;16.90;99.90;;;;;;5038157;28;20043;-73
2023/08/08 08:51:25;;;;;;;0.90;0.30;;;16.90;99.90;;;;;;5038219;28;20041;-73
2023/08/08 08:53:51;;;;;;;0.75;0.30;;;16.90;99.90;;;;;;5018713;28;20036;-73
2023/08/08 08:56:18;;;;;;;1.52;0.40;;;16.80;99.90;;;;;;5042949;28;20033;-73
2023/08/08 08:58:44;;;;;;;3.15;0.60;;;16.80;99.90;;;;;;5073755;28;20051;-73
2023/08/08 09:01:09;;;;;;;1.85;0.43;;;16.70;99.90;;;;;;5020368;28;20041;-73
2023/08/08 09:03:36;;;;;;;1.27;0.40;;;16.60;99.90;;;;;;5038969;28;20048;-73
2023/08/08 09:06:04;;;;;;;1.83;0.30;;;16.50;99.90;;;;;;5018712;28;20293;-73
2023/08/08 09:08:29;;;;;;;2.53;0.30;;;16.50;99.90;;;;;;5038810;28;20068;-73
2023/08/08 09:10:56;;;;;;;0.75;0.30;;;16.40;99.90;;;;;;5039177;28;20068;-74
2023/08/08 09:13:23;;;;;;;2.45;0.50;;;16.40;99.90;;;;;;5039496;28;20099;-73
2023/08/08 09:15:51;;;;;;;2.45;0.55;;;16.40;99.90;;;;;;5023908;28;20055;-73
2023/08/08 09:18:16;;;;;;;1.13;0.40;;;16.40;99.90;;;;;;5071529;28;20065;-72
2023/08/08 09:20:48;;;;;;;2.15;0.32;;;16.40;99.90;;;;;;5040498;28;20071;-73
2023/08/08 09:23:14;;;;;;;2.75;0.45;;;16.30;99.90;;;;;;5041910;28;20295;-72
2023/08/08 09:25:39;;;;;;;0.85;0.38;;;16.30;99.90;;;;;;5062742;28;20032;-72
2023/08/08 09:28:05;;;;;;;2.55;0.50;;;16.20;99.90;;;;;;5035752;28;20441;-72
2023/08/08 09:30:31;;;;;;;1.38;0.60;;;16.10;99.90;;;;;;5042366;28;20050;-72
2023/08/08 09:33:03;;;;;;;2.97;0.50;;;15.90;99.90;;;;;;5043921;28;20083;-72
2023/08/08 09:35:30;;;;;;;4.07;0.60;;;16.00;99.90;;;;;;5036815;28;20037;-72
2023/08/08 09:37:55;;;;;;;2.75;0.68;;;15.90;99.90;;;;;;5035395;28;20057;-72
2023/08/08 09:40:22;;;;;;;2.80;0.70;;;15.90;99.90;;;;;;5071358;28;20041;-72
2023/08/08 09:42:51;;;;;;;1.17;0.45;;;15.90;99.90;;;;;;5041155;28;20041;-72
2023/08/08 09:45:17;;;;;;;1.92;0.45;;;16.00;99.90;;;;;;5041601;28;20047;-72
2023/08/08 09:47:42;;;;;;;2.50;0.55;;;16.00;99.90;;;;;;5040045;28;20106;-72
2023/08/08 09:50:08;;;;;;;2.40;0.80;;;16.00;99.90;;;;;;5021005;28;20527;-72
2023/08/08 09:52:35;;;;;;;0.73;0.40;;;16.10;99.90;;;;;;5039612;28;20063;-71
2023/08/08 09:55:02;;;;;;;3.65;0.85;;;16.20;99.90;;;;;;5038285;28;20191;-72
2023/08/08 09:57:28;;;;;;;4.78;1.08;;;16.30;99.90;;;;;;5021963;28;20398;-72
2023/08/08 09:59:55;;;;;;;1.52;0.50;;;16.50;99.90;;;;;;5072102;28;20037;-73
2023/08/08 10:02:21;;;;;;;2.20;0.57;;;16.60;99.90;;;;;;5024914;28;20045;-72
2023/08/08 10:04:47;;;;;;;1.95;0.57;;;16.60;99.90;;;;;;5032462;28;20505;-72
2023/08/08 10:07:14;;;;;;;2.55;0.60;;;16.70;99.90;;;;;;5032080;28;20792;-71
2023/08/08 10:09:40;;;;;;;4.78;0.70;;;16.90;99.90;;;;;;5037141;28;20033;-72
2023/08/08 10:12:07;;;;;;;3.58;0.40;;;16.90;99.90;;;;;;5040001;28;20040;-72
2023/08/08 10:14:36;;;;;;;3.20;0.65;;;17.00;99.90;;;;;;5054334;28;20129;-72
2023/08/08 10:17:06;;;;;;;3.05;0.55;;;17.10;99.90;;;;;;5068803;28;20044;-72
2023/08/08 10:19:32;;;;;;;3.05;0.50;;;17.10;99.90;;;;;;5041314;28;20041;-72
2023/08/08 10:22:03;;;;;;;1.13;0.50;;;17.20;99.90;;;;;;5038098;28;20041;-72
2023/08/08 10:24:36;;;;;;;1.45;0.55;;;17.30;99.90;;;;;;5035332;28;20048;-72
2023/08/08 10:27:04;;;;;;;3.58;0.57;;;17.30;99.90;;;;;;5040179;28;20060;-72
2023/08/08 10:29:32;;;;;;;1.13;0.40;;;17.40;99.90;;;;;;5045137;28;20047;-72
2023/08/08 10:32:06;;;;;;;0.93;0.40;;;17.50;99.90;;;;;;5037646;28;20044;-72
2023/08/08 10:34:43;;;;;;;1.35;0.40;;;17.50;99.90;;;;;;5055317;28;20506;-72
2023/08/08 10:37:17;;;;;;;0.93;0.40;;;17.50;99.90;;;;;;5030610;28;20054;-72
2023/08/08 10:39:58;;;;;;;0.50;0.30;;;17.50;99.90;;;;;;5034669;28;20447;-72
2023/08/08 10:42:26;;;;;;;1.45;0.50;;;17.40;99.90;;;;;;5038488;28;20044;-72
2023/08/08 10:44:54;;;;;;;1.10;0.45;;;17.40;99.90;;;;;;5039948;28;20057;-72
2023/08/08 10:47:30;;;;;;;1.65;0.40;;;17.40;99.90;;;;;;5039098;28;20048;-72
2023/08/08 10:50:03;;;;;;;1.13;0.40;;;17.50;99.90;;;;;;5040397;28;20156;-71
2023/08/08 10:52:29;;;;;;;1.83;0.40;;;17.50;99.90;;;;;;5052091;28;20097;-71
2023/08/08 10:54:55;;;;;;;1.55;0.57;;;17.60;99.90;;;;;;5052887;28;20040;-72
2023/08/08 10:57:25;;;;;;;1.25;0.55;;;17.60;99.90;;;;;;5040985;28;20047;-72
2023/08/08 10:59:51;;;;;;;3.72;0.60;;;17.60;99.90;;;;;;5021153;28;20037;-72
2023/08/08 11:02:17;;;;;;;1.40;0.28;;;17.70;99.90;;;;;;5021293;28;20048;-72
2023/08/08 11:04:44;;;;;;;1.08;0.40;;;17.60;99.90;;;;;;5038814;28;20049;-73
2023/08/08 11:07:10;;;;;;;0.88;0.30;;;17.50;99.90;;;;;;5037848;28;20048;-72
2023/08/08 11:09:36;;;;;;;1.88;0.50;;;17.50;99.90;;;;;;5037975;28;20045;-72
2023/08/08 11:12:01;;;;;;;2.35;0.60;;;17.50;99.90;;;;;;5039680;28;20036;-72
2023/08/08 11:14:27;;;;;;;2.35;0.70;;;17.50;99.90;;;;;;5019596;28;20127;-73
2023/08/08 11:16:53;;;;;;;2.55;0.80;;;17.50;99.90;;;;;;5036754;28;20291;-73
2023/08/08 11:19:19;;;;;;;0.95;0.40;;;17.50;99.90;;;;;;5038685;28;20083;-73
2023/08/08 11:21:46;;;;;;;1.13;0.50;;;17.40;99.90;;;;;;5034732;28;20484;-72
2023/08/08 11:24:13;;;;;;;1.88;0.77;;;17.40;99.90;;;;;;5029774;28;20478;-73
2023/08/08 11:26:40;;;;;;;1.02;0.50;;;17.30;99.90;;;;;;5035092;28;20135;-71
2023/08/08 11:29:07;;;;;;;2.88;0.60;;;17.20;99.90;;;;;;5033481;28;20490;-72
2023/08/08 11:31:34;;;;;;;2.67;0.50;;;17.10;99.90;;;;;;5035450;28;20399;-71
2023/08/08 11:34:00;;;;;;;1.45;0.52;;;17.30;99.90;;;;;;5030897;28;20040;-72
2023/08/08 11:36:29;;;;;;;1.67;0.43;;;17.10;99.90;;;;;;5018202;28;20029;-72
2023/08/08 11:38:56;;;;;;;3.33;0.40;;;17.10;99.90;;;;;;5033659;28;20041;-71
2023/08/08 11:41:23;;;;;;;2.13;0.40;;;17.10;99.90;;;;;;5034841;28;20045;-72
2023/08/08 11:43:50;;;;;;;1.23;0.38;;;17.10;99.90;;;;;;5065799;28;20033;-71
2023/08/08 11:46:17;;;;;;;2.08;0.40;;;17.10;99.90;;;;;;5037222;28;20040;-72
2023/08/08 11:48:46;;;;;;;2.72;0.30;;;17.30;99.90;;;;;;5021231;28;20159;-72
2023/08/08 11:51:14;;;;;;;0.88;0.40;;;17.40;99.90;;;;;;5033855;28;20064;-72
2023/08/08 11:53:50;;;;;;;2.85;0.32;;;17.40;99.90;;;;;;5033811;28;20570;-71
2023/08/08 11:56:15;;;;;;;3.00;0.47;;;17.40;99.50;;;;;;5035732;28;20137;-72
2023/08/08 11:58:41;;;;;;;2.63;0.73;;;17.40;99.90;;;;;;5033967;28;20165;-72
2023/08/08 12:01:08;;;;;;;5.00;1.05;;;17.40;99.80;;;;;;5035802;28;20434;-72
2023/08/08 12:03:38;;;;;;;1.25;0.30;;;17.40;99.60;;;;;;5068717;28;20049;-72
2023/08/08 12:06:12;;;;;;;3.30;0.50;;;17.40;99.70;;;;;;5033360;28;20098;-72
2023/08/08 12:08:38;;;;;;;1.97;0.20;;;17.40;99.50;;;;;;5068409;28;20210;-72
2023/08/08 12:11:05;;;;;;;1.85;0.47;;;17.40;99.90;;;;;;5035700;28;20051;-72
2023/08/08 12:13:31;;;;;;;1.08;0.57;;;17.40;99.90;;;;;;5014343;28;20064;-72
2023/08/08 12:15:58;;;;;;;1.45;0.25;;;17.30;99.90;;;;;;5036509;28;20045;-71
2023/08/08 12:18:24;;;;;;;2.15;0.50;;;17.30;99.90;;;;;;5019276;28;20044;-72
2023/08/08 12:20:50;;;;;;;4.13;0.30;;;17.20;99.90;;;;;;5031814;28;20069;-73
2023/08/08 12:23:15;;;;;;;4.55;0.40;;;17.30;99.90;;;;;;5029360;28;20516;-72
2023/08/08 12:25:43;;;;;;;4.78;0.75;;;17.40;99.90;;;;;;5032542;28;20052;-71
2023/08/08 12:28:09;;;;;;;3.28;0.50;;;17.50;99.90;;;;;;5036797;28;20492;-72
2023/08/08 12:30:34;;;;;;;1.45;0.60;;;17.40;99.90;;;;;;5038199;28;20388;-72
2023/08/08 12:33:00;;;;;;;2.90;0.52;;;17.50;99.90;;;;;;5035127;28;20033;-72
2023/08/08 12:35:27;;;;;;;1.30;0.50;;;17.60;99.90;;;;;;5037952;28;20494;-72
2023/08/08 12:37:53;;;;;;;2.03;0.57;;;17.60;99.90;;;;;;5014805;28;20377;-71
2023/08/08 12:40:18;;;;;;;3.25;0.40;;;17.70;99.90;;;;;;5029511;28;20218;-72
2023/08/08 12:42:44;;;;;;;0.20;0.17;;;17.70;99.90;;;;;;5036376;28;20045;-72
2023/08/08 12:45:10;;;;;;;3.25;0.52;;;17.80;99.90;;;;;;5037396;28;20502;-72